Time;durP1;ratioP1;P1;durP2;ratioP2;P2;SDS_P1;SDS_P2;PMS_P1;PMS_P2;Temp;Humidity;BMP_temperature;BMP_pressure;BME280_temperature;BME280_humidity;BME280_pressure;Samples;Min_cycle;Max_cycle;Signal;HPM_P1;HPM_P2
2021/05/12 00:00:58;;;;;;;5.23;4.73;;;;;;;12.28;100.00;99657.97;5015475;28;20180;-75
2021/05/12 00:03:23;;;;;;;5.07;4.57;;;;;;;12.29;100.00;99658.75;4996346;28;20188;-75
2021/05/12 00:05:49;;;;;;;5.43;4.93;;;;;;;12.29;100.00;99645.88;5014008;28;20224;-75
2021/05/12 00:08:14;;;;;;;6.97;6.37;;;;;;;12.31;100.00;99660.03;5013997;28;20681;-75
2021/05/12 00:10:39;;;;;;;5.50;4.97;;;;;;;12.33;100.00;99665.19;4996380;28;20178;-75
2021/05/12 00:13:05;;;;;;;9.17;5.43;;;;;;;12.34;100.00;99666.78;5013588;28;20195;-74
2021/05/12 00:15:30;;;;;;;6.17;5.20;;;;;;;12.32;100.00;99669.84;4996130;28;20595;-75
2021/05/12 00:17:55;;;;;;;6.83;6.23;;;;;;;12.30;100.00;99663.13;5013709;28;20180;-75
2021/05/12 00:20:27;;;;;;;7.37;6.70;;;;;;;12.27;100.00;99667.31;5013804;28;20181;-75
2021/05/12 00:23:04;;;;;;;5.57;5.07;;;;;;;12.21;100.00;99663.22;5013524;28;20161;-75
2021/05/12 00:25:30;;;;;;;6.03;5.60;;;;;;;12.18;100.00;99674.88;5013533;28;20275;-75
2021/05/12 00:27:56;;;;;;;6.20;5.70;;;;;;;12.14;100.00;99674.72;5013524;28;20208;-75
2021/05/12 00:30:22;;;;;;;5.30;4.80;;;;;;;12.17;100.00;99676.00;5013485;28;20267;-75
2021/05/12 00:32:47;;;;;;;6.03;5.53;;;;;;;12.14;100.00;99671.97;5013297;28;20188;-75
2021/05/12 00:35:14;;;;;;;5.33;4.93;;;;;;;12.14;100.00;99668.44;5013407;28;20706;-76
2021/05/12 00:37:40;;;;;;;5.50;5.03;;;;;;;12.14;100.00;99668.44;5013288;28;20203;-75
2021/05/12 00:40:08;;;;;;;6.33;5.83;;;;;;;12.11;100.00;99669.94;5012030;28;20191;-76
2021/05/12 00:42:33;;;;;;;6.03;4.70;;;;;;;12.13;100.00;99675.06;5013099;28;20214;-74
2021/05/12 00:45:00;;;;;;;6.03;5.53;;;;;;;12.14;100.00;99671.97;5013157;28;20208;-74
2021/05/12 00:47:27;;;;;;;7.57;5.57;;;;;;;12.17;100.00;99676.00;5013184;28;20172;-74
2021/05/12 00:49:52;;;;;;;6.77;6.20;;;;;;;12.18;100.00;99670.19;5011815;28;20263;-75
2021/05/12 00:52:18;;;;;;;5.53;5.03;;;;;;;12.17;100.00;99673.28;5013291;28;20196;-75
2021/05/12 00:54:43;;;;;;;4.67;4.27;;;;;;;12.15;100.00;99670.88;5012929;28;20185;-75
2021/05/12 00:57:08;;;;;;;5.47;4.97;;;;;;;12.14;100.00;99671.19;5012528;28;20223;-76
2021/05/12 00:59:35;;;;;;;4.73;4.33;;;;;;;12.16;100.00;99674.41;5012847;28;20651;-74
2021/05/12 01:02:00;;;;;;;7.17;6.57;;;;;;;12.11;100.00;99667.19;5012790;28;20628;-75
2021/05/12 01:04:26;;;;;;;7.10;6.27;;;;;;;12.09;100.00;99672.22;5012862;28;20196;-75
2021/05/12 01:06:51;;;;;;;8.67;5.53;;;;;;;12.05;100.00;99668.56;5012819;28;20177;-76
2021/05/12 01:09:17;;;;;;;6.50;5.90;;;;;;;12.02;100.00;99663.78;5012739;28;20625;-74
2021/05/12 01:11:43;;;;;;;5.93;5.33;;;;;;;12.01;100.00;99661.38;5012705;28;20173;-75
2021/05/12 01:14:09;;;;;;;7.03;6.43;;;;;;;11.99;100.00;99661.69;5012592;28;20266;-75
2021/05/12 01:16:34;;;;;;;5.47;5.00;;;;;;;11.99;100.00;99655.44;5012677;28;20225;-76
2021/05/12 01:19:00;;;;;;;6.80;6.07;;;;;;;11.96;100.00;99661.59;5011293;28;20631;-74
2021/05/12 01:21:25;;;;;;;6.47;5.97;;;;;;;11.91;100.00;99660.69;5012722;28;20180;-73
2021/05/12 01:23:51;;;;;;;5.73;5.27;;;;;;;11.88;100.00;99664.09;5012393;28;20181;-75
2021/05/12 01:26:22;;;;;;;8.43;5.23;;;;;;;11.88;100.00;99660.56;5012306;28;20231;-75
2021/05/12 01:28:52;;;;;;;11.47;5.63;;;;;;;11.88;100.00;99664.09;5011064;28;20264;-75
2021/05/12 01:31:23;;;;;;;5.23;4.73;;;;;;;11.89;100.00;99660.22;5012266;28;20272;-75
2021/05/12 01:33:51;;;;;;;7.73;5.40;;;;;;;11.89;100.00;99668.44;5012203;28;20177;-75
2021/05/12 01:36:17;;;;;;;6.37;5.77;;;;;;;11.90;100.00;99664.56;5010855;28;20185;-75
2021/05/12 01:38:45;;;;;;;5.83;5.33;;;;;;;11.89;100.00;99667.63;5012099;28;20180;-75
2021/05/12 01:41:11;;;;;;;7.40;6.67;;;;;;;11.89;100.00;99667.63;5012099;28;20189;-74
2021/05/12 01:43:37;;;;;;;5.93;5.43;;;;;;;11.88;100.00;99674.25;5010500;28;20184;-75
2021/05/12 01:46:03;;;;;;;6.73;6.13;;;;;;;11.88;100.00;99668.78;5012253;28;20540;-73
2021/05/12 01:48:29;;;;;;;7.33;5.40;;;;;;;11.88;100.00;99674.25;5011934;28;20212;-75
2021/05/12 01:50:55;;;;;;;10.57;6.40;;;;;;;11.86;100.00;99674.59;5012133;28;20190;-75
2021/05/12 01:53:21;;;;;;;8.13;7.30;;;;;;;11.87;100.00;99673.44;5011852;28;20173;-75
2021/05/12 01:55:47;;;;;;;9.77;6.43;;;;;;;11.86;100.00;99674.59;5011868;28;20181;-75
2021/05/12 01:58:13;;;;;;;9.63;7.77;;;;;;;11.86;100.00;99681.97;5011678;28;20210;-75
2021/05/12 02:00:41;;;;;;;8.40;7.50;;;;;;;11.85;100.00;99678.44;5011753;28;20173;-75
2021/05/12 02:03:10;;;;;;;9.67;8.43;;;;;;;11.85;100.00;99686.66;5011553;28;20179;-75
2021/05/12 02:05:37;;;;;;;9.53;8.50;;;;;;;11.86;100.00;99671.84;5011605;28;20211;-74
2021/05/12 02:08:08;;;;;;;9.70;8.80;;;;;;;11.85;100.00;99674.91;5010964;28;20475;-75
2021/05/12 02:10:35;;;;;;;8.70;7.70;;;;;;;11.84;100.00;99676.03;5011915;28;20173;-75
2021/05/12 02:13:00;;;;;;;15.37;9.03;;;;;;;11.85;100.00;99680.38;5011267;28;20172;-73
2021/05/12 02:15:26;;;;;;;9.93;8.93;;;;;;;11.85;100.00;99670.22;5011852;28;20222;-75
2021/05/12 02:17:52;;;;;;;15.40;8.33;;;;;;;11.83;100.00;99672.50;5011340;28;20176;-74
2021/05/12 02:20:23;;;;;;;9.17;8.27;;;;;;;11.84;100.00;99670.56;5011317;28;20211;-75
2021/05/12 02:22:48;;;;;;;9.77;8.60;;;;;;;11.82;100.00;99681.84;5011377;28;20177;-74
2021/05/12 02:25:14;;;;;;;8.57;7.70;;;;;;;11.83;100.00;99688.94;5011207;28;20211;-76
2021/05/12 02:27:40;;;;;;;11.43;7.67;;;;;;;11.82;100.00;99687.31;5011603;28;20180;-75
2021/05/12 02:30:07;;;;;;;10.90;8.83;;;;;;;11.83;100.00;99685.41;4993507;28;20203;-74
2021/05/12 02:32:33;;;;;;;8.33;7.37;;;;;;;11.85;100.00;99683.09;5010985;28;20640;-74
2021/05/12 02:34:59;;;;;;;11.13;10.03;;;;;;;11.86;100.00;99677.31;5011132;28;20460;-75
2021/05/12 02:37:25;;;;;;;9.37;7.83;;;;;;;11.87;100.00;99672.66;5011183;28;20173;-74
2021/05/12 02:39:51;;;;;;;10.03;9.03;;;;;;;11.85;100.00;99670.22;5011200;28;20634;-74
2021/05/12 02:42:16;;;;;;;9.47;6.73;;;;;;;11.86;100.00;99668.28;5010647;28;20221;-74
2021/05/12 02:44:42;;;;;;;8.03;6.73;;;;;;;11.86;100.00;99674.59;5011009;28;20672;-75
2021/05/12 02:47:08;;;;;;;10.27;6.43;;;;;;;11.85;100.00;99663.94;5011099;28;20176;-76
2021/05/12 02:49:33;;;;;;;7.03;6.23;;;;;;;11.86;100.00;99669.13;5011039;28;20184;-75
2021/05/12 02:51:59;;;;;;;6.60;3.13;;;;;;;11.88;100.00;99679.72;5010808;28;20702;-74
2021/05/12 02:54:24;;;;;;;10.77;8.03;;;;;;;11.85;100.00;99681.16;4993363;28;20214;-74
2021/05/12 02:56:49;;;;;;;7.43;6.60;;;;;;;11.84;100.00;99676.84;5010763;28;20172;-76
2021/05/12 02:59:15;;;;;;;7.67;6.73;;;;;;;11.88;100.00;99676.97;5010866;28;20306;-76
2021/05/12 03:01:40;;;;;;;8.40;6.87;;;;;;;11.89;100.00;99676.66;5010809;28;20222;-76
2021/05/12 03:04:06;;;;;;;7.30;6.63;;;;;;;11.90;100.00;99683.72;5010684;28;20181;-75
2021/05/12 03:06:32;;;;;;;7.63;6.97;;;;;;;11.89;100.00;99682.13;5010951;28;20173;-75
2021/05/12 03:08:57;;;;;;;9.33;7.90;;;;;;;11.90;100.00;99682.91;5010864;28;20176;-75
2021/05/12 03:11:23;;;;;;;8.07;7.37;;;;;;;11.91;100.00;99681.78;5010600;28;20272;-74
2021/05/12 03:13:48;;;;;;;8.00;7.20;;;;;;;11.93;100.00;99682.22;5010726;28;20184;-74
2021/05/12 03:16:14;;;;;;;12.37;9.03;;;;;;;11.94;100.00;99686.56;5010702;28;20759;-74
2021/05/12 03:18:40;;;;;;;9.27;8.47;;;;;;;11.95;100.00;99681.88;5010753;28;20263;-75
2021/05/12 03:21:05;;;;;;;8.20;6.47;;;;;;;11.97;100.00;99682.34;5014287;28;20180;-76
2021/05/12 03:23:31;;;;;;;8.03;7.23;;;;;;;12.00;100.00;99687.94;5014469;28;20211;-75
2021/05/12 03:25:56;;;;;;;7.80;6.97;;;;;;;12.01;100.00;99691.50;5014405;28;20204;-76
2021/05/12 03:28:22;;;;;;;8.53;7.60;;;;;;;12.03;100.00;99690.00;5014525;28;20617;-76
2021/05/12 03:30:47;;;;;;;7.47;6.70;;;;;;;12.04;100.00;99699.81;5014512;28;20200;-75
2021/05/12 03:33:13;;;;;;;9.20;7.13;;;;;;;12.05;100.00;99698.69;5014266;28;20208;-75
2021/05/12 03:35:40;;;;;;;9.17;8.37;;;;;;;12.10;100.00;99700.41;5014442;28;20657;-72
2021/05/12 03:38:09;;;;;;;9.57;8.67;;;;;;;12.14;100.00;99695.84;5014444;28;20180;-76
2021/05/12 03:40:34;;;;;;;8.53;7.77;;;;;;;12.16;100.00;99707.28;4996594;28;20207;-76
2021/05/12 03:43:00;;;;;;;8.50;7.70;;;;;;;12.15;100.00;99703.75;5014112;28;20621;-75
2021/05/12 03:45:27;;;;;;;8.23;7.47;;;;;;;12.18;100.00;99707.72;5014175;28;20218;-75
2021/05/12 03:47:53;;;;;;;9.73;7.67;;;;;;;12.21;100.00;99709.78;5014104;28;20188;-75
2021/05/12 03:50:20;;;;;;;7.40;6.67;;;;;;;12.20;100.00;99703.50;5014463;28;20271;-75
2021/05/12 03:52:46;;;;;;;8.10;7.40;;;;;;;12.24;100.00;99711.84;5013957;28;20399;-75
2021/05/12 03:55:12;;;;;;;8.87;7.57;;;;;;;12.27;100.00;99708.41;5014170;28;20181;-75
2021/05/12 03:57:38;;;;;;;7.93;7.23;;;;;;;12.28;100.00;99718.22;5013883;28;20223;-75
2021/05/12 04:00:07;;;;;;;7.57;6.67;;;;;;;12.31;100.00;99725.78;5014137;28;20251;-73
2021/05/12 04:02:33;;;;;;;8.83;7.93;;;;;;;12.32;100.00;99721.09;5013879;28;20288;-75
2021/05/12 04:04:58;;;;;;;10.03;7.47;;;;;;;12.30;100.00;99723.38;5012262;28;20698;-75
2021/05/12 04:07:24;;;;;;;8.23;7.53;;;;;;;12.28;100.00;99726.44;5013725;28;20182;-75
2021/05/12 04:09:49;;;;;;;7.63;6.97;;;;;;;12.26;100.00;99720.50;5013740;28;20183;-75
2021/05/12 04:12:15;;;;;;;8.90;7.33;;;;;;;12.25;100.00;99727.13;5013507;28;20177;-75
2021/05/12 04:14:40;;;;;;;8.80;7.90;;;;;;;12.25;100.00;99732.59;5013975;28;20703;-74
2021/05/12 04:17:05;;;;;;;7.03;6.43;;;;;;;12.26;100.00;99722.44;5013478;28;20168;-75
2021/05/12 04:19:31;;;;;;;7.80;7.10;;;;;;;12.24;100.00;99714.56;5013506;28;20186;-74
2021/05/12 04:21:56;;;;;;;7.70;7.00;;;;;;;12.20;100.00;99719.94;5013303;28;20223;-76
2021/05/12 04:24:22;;;;;;;10.13;5.97;;;;;;;12.14;100.00;99724.00;5013409;28;20541;-74
2021/05/12 04:26:47;;;;;;;8.63;7.13;;;;;;;12.12;100.00;99717.28;5013608;28;20279;-76
2021/05/12 04:29:12;;;;;;;10.50;6.87;;;;;;;12.07;100.00;99720.25;5012228;28;20200;-75
2021/05/12 04:31:39;;;;;;;6.90;5.57;;;;;;;12.06;100.00;99732.34;5012627;28;20525;-75
2021/05/12 04:34:04;;;;;;;7.10;6.43;;;;;;;12.03;100.00;99725.59;5013692;28;20177;-76
2021/05/12 04:36:29;;;;;;;8.37;7.57;;;;;;;12.02;100.00;99734.97;5013020;28;20180;-75
2021/05/12 04:38:55;;;;;;;7.97;7.17;;;;;;;12.03;100.00;99738.50;5013638;28;20223;-74
2021/05/12 04:41:20;;;;;;;7.97;7.30;;;;;;;12.02;100.00;99737.69;5013096;28;20204;-74
2021/05/12 04:43:46;;;;;;;7.47;6.73;;;;;;;12.05;100.00;99741.69;5012789;28;20694;-74
2021/05/12 04:46:12;;;;;;;11.07;8.87;;;;;;;12.06;100.00;99740.56;5012938;28;20204;-73
2021/05/12 04:48:37;;;;;;;7.57;6.87;;;;;;;12.06;100.00;99740.56;5013038;28;20683;-76
2021/05/12 04:51:03;;;;;;;9.13;8.27;;;;;;;12.05;100.00;99745.22;5013070;28;20184;-76
2021/05/12 04:53:29;;;;;;;14.03;7.90;;;;;;;12.06;100.00;99754.25;5012796;28;20243;-76
2021/05/12 04:55:54;;;;;;;9.10;7.77;;;;;;;12.05;100.00;99745.22;5011771;28;20798;-75
2021/05/12 04:58:20;;;;;;;12.53;8.13;;;;;;;12.06;100.00;99752.31;5011888;28;20527;-76
2021/05/12 05:00:46;;;;;;;9.23;8.47;;;;;;;12.06;100.00;99757.78;5012830;28;20204;-74
2021/05/12 05:03:12;;;;;;;9.63;8.80;;;;;;;12.09;100.00;99759.03;5011369;28;20204;-76
2021/05/12 05:05:37;;;;;;;9.53;8.60;;;;;;;12.09;100.00;99770.78;5012067;28;20671;-73
2021/05/12 05:08:02;;;;;;;14.37;9.43;;;;;;;12.08;100.00;99766.47;5013554;28;20180;-74
2021/05/12 05:10:28;;;;;;;9.33;8.37;;;;;;;12.09;100.00;99770.00;5014656;28;20222;-75
2021/05/12 05:12:53;;;;;;;11.43;10.27;;;;;;;12.12;100.00;99769.31;5013878;28;20184;-74
2021/05/12 05:15:18;;;;;;;13.63;9.83;;;;;;;12.10;100.00;99772.38;5013727;28;20186;-76
2021/05/12 05:17:44;;;;;;;10.33;9.33;;;;;;;12.10;100.00;99766.13;5012989;28;20172;-75
2021/05/12 05:20:12;;;;;;;9.63;8.63;;;;;;;12.12;100.00;99772.03;5012407;28;20203;-75
2021/05/12 05:22:37;;;;;;;10.83;9.67;;;;;;;12.07;100.00;99773.06;5012234;28;20172;-72
2021/05/12 05:25:03;;;;;;;10.10;8.20;;;;;;;12.09;100.00;99775.47;5012813;28;20215;-73
2021/05/12 05:27:29;;;;;;;10.60;8.70;;;;;;;12.08;100.00;99771.13;5014049;28;20177;-73
2021/05/12 05:29:54;;;;;;;9.87;8.90;;;;;;;12.09;100.00;99773.53;5013513;28;20592;-74
2021/05/12 05:32:20;;;;;;;11.63;10.43;;;;;;;12.13;100.00;99774.44;5013423;28;20587;-73
2021/05/12 05:34:45;;;;;;;11.20;9.30;;;;;;;12.15;100.00;99776.84;5013923;28;20192;-74
2021/05/12 05:37:10;;;;;;;9.83;8.93;;;;;;;12.18;100.00;99765.22;5014486;28;20172;-73
2021/05/12 05:39:36;;;;;;;11.50;9.97;;;;;;;12.20;100.00;99774.72;5014205;28;20173;-72
2021/05/12 05:42:06;;;;;;;5.60;5.10;;;;;;;12.20;100.00;99762.94;5013124;28;20181;-72
2021/05/12 05:44:32;;;;;;;8.27;7.47;;;;;;;12.20;100.00;99769.22;5012531;28;20196;-74
2021/05/12 05:46:58;;;;;;;6.87;6.27;;;;;;;12.25;100.00;99770.94;5014288;28;20192;-73
2021/05/12 05:49:23;;;;;;;7.63;6.87;;;;;;;12.23;99.98;99786.91;5014640;28;20253;-74
2021/05/12 05:51:52;;;;;;;7.47;6.67;;;;;;;12.20;99.72;99782.94;5014666;28;20668;-72
2021/05/12 05:54:18;;;;;;;7.43;6.73;;;;;;;12.21;99.92;99787.25;5014386;28;20173;-74
2021/05/12 05:56:44;;;;;;;7.70;6.70;;;;;;;12.16;99.42;99784.75;5014167;28;20272;-73
2021/05/12 05:59:09;;;;;;;6.47;5.80;;;;;;;12.16;99.52;99783.94;5014969;28;20208;-72
2021/05/12 06:01:35;;;;;;;5.67;5.23;;;;;;;12.10;99.39;99775.13;5012705;28;20188;-75
2021/05/12 06:04:00;;;;;;;7.43;6.80;;;;;;;12.08;99.61;99782.09;5017564;28;20191;-73
2021/05/12 06:06:25;;;;;;;6.30;5.73;;;;;;;12.07;100.00;99777.75;5016883;28;20196;-73
2021/05/12 06:08:52;;;;;;;8.13;7.43;;;;;;;12.04;100.00;99786.63;5011874;28;20179;-73
2021/05/12 06:11:17;;;;;;;6.60;5.87;;;;;;;12.04;100.00;99783.91;5011738;28;20169;-72
2021/05/12 06:13:43;;;;;;;7.00;5.97;;;;;;;12.08;100.00;99788.34;5011881;28;20703;-73
2021/05/12 06:16:08;;;;;;;6.77;6.07;;;;;;;12.08;100.00;99788.34;5011789;28;20205;-73
2021/05/12 06:18:33;;;;;;;6.33;5.73;;;;;;;12.12;99.85;99791.22;5011542;28;20175;-73
2021/05/12 06:20:59;;;;;;;5.63;5.13;;;;;;;12.10;99.51;99804.44;5011369;28;20730;-74
2021/05/12 06:23:24;;;;;;;6.30;5.70;;;;;;;12.06;99.48;99803.53;5011542;28;20181;-74
2021/05/12 06:25:51;;;;;;;9.40;8.30;;;;;;;12.02;98.54;99806.16;5011404;28;20196;-71
2021/05/12 06:28:18;;;;;;;9.47;6.53;;;;;;;12.04;99.82;99803.06;5011559;28;20176;-72
2021/05/12 06:30:49;;;;;;;7.83;7.13;;;;;;;12.03;99.23;99805.00;5011413;28;20173;-74
2021/05/12 06:33:15;;;;;;;7.93;7.23;;;;;;;12.06;99.50;99803.53;5011376;28;20621;-72
2021/05/12 06:35:40;;;;;;;10.67;5.43;;;;;;;12.09;99.53;99806.38;5011356;28;20184;-72
2021/05/12 06:38:06;;;;;;;8.23;7.10;;;;;;;12.10;99.06;99797.03;5011399;28;20236;-73
2021/05/12 06:40:34;;;;;;;7.27;6.57;;;;;;;12.10;99.01;99818.94;5010049;28;20307;-72
2021/05/12 06:43:00;;;;;;;9.57;7.23;;;;;;;12.13;98.47;99826.47;5011077;28;20183;-77
2021/05/12 06:45:25;;;;;;;7.17;6.43;;;;;;;12.17;98.64;99826.63;5011227;28;20215;-72
2021/05/12 06:47:54;;;;;;;6.00;5.50;;;;;;;12.19;98.67;99825.16;5011192;28;20176;-73
2021/05/12 06:50:20;;;;;;;8.03;6.07;;;;;;;12.18;97.99;99828.22;5025544;28;20176;-74
2021/05/12 06:52:51;;;;;;;6.53;5.93;;;;;;;12.14;97.04;99819.06;5028398;28;20180;-71
2021/05/12 06:55:16;;;;;;;7.13;6.43;;;;;;;12.17;97.90;99824.69;5012838;28;20176;-71
2021/05/12 06:57:41;;;;;;;7.00;5.77;;;;;;;12.24;98.31;99824.13;5030746;28;20250;-71
2021/05/12 07:00:07;;;;;;;7.90;6.43;;;;;;;12.27;98.30;99837.13;5026666;28;20647;-72
2021/05/12 07:02:32;;;;;;;6.10;5.50;;;;;;;12.34;97.86;99836.59;5010921;28;20251;-72
2021/05/12 07:04:58;;;;;;;12.57;6.83;;;;;;;12.35;97.82;99841.75;5010911;28;20688;-71
2021/05/12 07:07:23;;;;;;;5.03;4.53;;;;;;;12.34;96.06;99844.81;5011117;28;20176;-72
2021/05/12 07:09:48;;;;;;;5.30;4.43;;;;;;;12.32;95.42;99850.63;5011014;28;20168;-73
2021/05/12 07:12:14;;;;;;;5.13;4.20;;;;;;;12.31;95.53;99849.03;5010805;28;20573;-72
2021/05/12 07:14:39;;;;;;;5.03;3.73;;;;;;;12.28;95.00;99857.09;5010981;28;20176;-72
2021/05/12 07:17:04;;;;;;;7.27;4.70;;;;;;;12.27;95.33;99856.31;5010891;28;20169;-73
2021/05/12 07:19:29;;;;;;;3.97;3.67;;;;;;;12.25;95.13;99855.84;5010870;28;20256;-72
2021/05/12 07:21:55;;;;;;;3.20;2.90;;;;;;;12.30;95.34;99871.28;5010693;28;20259;-72
2021/05/12 07:24:20;;;;;;;3.43;3.13;;;;;;;12.24;93.96;99865.19;5010745;28;20168;-72
2021/05/12 07:26:46;;;;;;;3.77;3.33;;;;;;;12.23;94.54;99866.34;5010767;28;20200;-72
2021/05/12 07:29:13;;;;;;;3.33;3.03;;;;;;;12.21;94.31;99869.41;5011033;28;20203;-78
2021/05/12 07:31:38;;;;;;;5.33;4.07;;;;;;;12.24;94.72;99870.69;5010687;28;20180;-72
2021/05/12 07:34:06;;;;;;;4.53;4.13;;;;;;;12.27;94.58;99872.75;5010565;28;20183;-79
2021/05/12 07:36:32;;;;;;;5.60;3.57;;;;;;;12.26;94.69;99870.34;4993096;28;20283;-75
2021/05/12 07:38:57;;;;;;;4.20;3.80;;;;;;;12.29;95.62;99875.94;5010632;28;20607;-74
2021/05/12 07:59:17;;;;;;;3.77;3.47;;;;;;;12.65;92.68;99905.41;5079322;27;20539;-77
2021/05/12 08:01:45;;;;;;;4.03;3.40;;;;;;;12.60;92.55;99896.63;5075440;28;20218;-77
2021/05/12 08:04:10;;;;;;;4.17;3.53;;;;;;;12.60;93.38;99896.63;5079318;28;20710;-77
2021/05/12 08:06:40;;;;;;;2.80;2.57;;;;;;;12.55;93.60;99899.56;5082049;28;20241;-78
2021/05/12 08:09:06;;;;;;;5.30;3.73;;;;;;;12.49;93.96;99905.25;5075663;28;20239;-77
2021/05/12 08:11:32;;;;;;;2.83;2.63;;;;;;;12.44;94.19;99900.00;5087411;28;20178;-77
2021/05/12 08:13:57;;;;;;;4.00;3.60;;;;;;;12.43;94.74;99897.56;5087572;28;20531;-77
2021/05/12 08:16:23;;;;;;;3.30;3.00;;;;;;;12.50;96.44;99904.13;5087737;28;20181;-77
2021/05/12 08:18:48;;;;;;;3.33;2.83;;;;;;;12.56;96.31;99906.63;5087476;28;20197;-77
2021/05/12 08:21:13;;;;;;;3.40;3.10;;;;;;;12.55;96.07;99916.00;5088009;28;20213;-77
2021/05/12 08:23:39;;;;;;;3.23;2.97;;;;;;;12.52;95.95;99910.06;5084530;28;20182;-77
2021/05/12 08:26:04;;;;;;;2.90;2.63;;;;;;;12.48;95.44;99913.81;5084876;28;20182;-76
2021/05/12 08:28:29;;;;;;;3.37;3.07;;;;;;;12.42;94.99;99907.72;5087431;28;20202;-77
2021/05/12 08:30:56;;;;;;;2.53;2.33;;;;;;;12.49;95.81;99916.22;5086834;28;20174;-77
2021/05/12 08:33:23;;;;;;;2.97;2.77;;;;;;;12.46;94.91;99916.09;5087199;28;20261;-75
2021/05/12 08:35:48;;;;;;;2.87;2.67;;;;;;;12.52;95.51;99907.31;5087532;28;20180;-77
2021/05/12 08:38:19;;;;;;;2.40;2.27;;;;;;;12.57;94.85;99908.22;5087223;28;20178;-77
2021/05/12 08:40:46;;;;;;;3.97;3.33;;;;;;;12.72;96.52;99911.13;5087402;28;20180;-76
2021/05/12 08:43:13;;;;;;;3.37;3.10;;;;;;;12.68;95.13;99904.72;5085995;28;20178;-78
2021/05/12 08:45:42;;;;;;;3.50;3.20;;;;;;;12.78;95.17;99909.78;5085993;28;20257;-77
2021/05/12 08:48:11;;;;;;;4.13;3.83;;;;;;;12.91;95.90;99899.66;5085259;28;20280;-78
2021/05/12 08:50:37;;;;;;;2.37;2.17;;;;;;;13.03;94.42;99904.38;5086716;28;20693;-77
2021/05/12 08:53:03;;;;;;;3.67;3.37;;;;;;;13.14;94.45;99905.50;5086764;28;20174;-78
2021/05/12 08:55:30;;;;;;;2.93;2.73;;;;;;;13.22;94.09;99906.56;5086606;28;20600;-75
2021/05/12 08:57:56;;;;;;;2.93;2.63;;;;;;;13.27;92.88;99915.38;5085435;28;20213;-76
2021/05/12 09:00:21;;;;;;;3.87;3.57;;;;;;;13.13;90.74;99912.13;5072583;28;20213;-73
2021/05/12 09:02:47;;;;;;;2.40;2.17;;;;;;;13.25;92.30;99906.69;5073027;28;20683;-75
2021/05/12 09:05:13;;;;;;;3.57;3.27;;;;;;;13.29;90.96;99901.31;5072984;28;20206;-76
2021/05/12 09:07:38;;;;;;;1.57;1.40;;;;;;;13.40;91.52;99896.97;5072780;28;20195;-75
2021/05/12 09:10:05;;;;;;;1.97;1.87;;;;;;;13.33;88.55;99907.72;5073222;28;20269;-74
2021/05/12 09:13:00;;;;;;;2.77;2.57;;;;;;;13.33;88.62;99907.72;5072660;28;20648;-74
2021/05/12 09:15:27;;;;;;;3.00;2.80;;;;;;;13.37;88.29;99906.69;5072900;28;20171;-76
2021/05/12 09:17:55;;;;;;;2.90;2.60;;;;;;;13.44;88.00;99903.38;5072529;28;20171;-75
2021/05/12 09:20:24;;;;;;;2.97;2.77;;;;;;;13.38;87.16;99908.28;5072679;28;20175;-77
2021/05/12 09:23:07;;;;;;;2.70;2.50;;;;;;;13.37;87.44;99909.44;5072547;28;20441;-77
2021/05/12 09:25:35;;;;;;;2.67;2.47;;;;;;;13.33;86.45;99908.53;5072627;28;20175;-76
2021/05/12 09:28:15;;;;;;;3.00;2.70;;;;;;;13.29;88.73;99904.03;5072708;28;20210;-78
2021/05/12 09:30:42;;;;;;;3.70;3.10;;;;;;;13.22;88.56;99909.31;5071118;28;20178;-77
2021/05/12 09:33:09;;;;;;;2.87;2.53;;;;;;;13.22;89.43;99920.28;5072127;28;20170;-76
2021/05/12 09:35:43;;;;;;;3.13;2.47;;;;;;;13.24;89.43;99916.06;5072410;28;20178;-77
2021/05/12 09:38:23;;;;;;;2.47;2.27;;;;;;;13.44;89.69;99910.78;5072324;28;20178;-77
2021/05/12 09:41:03;;;;;;;2.67;2.47;;;;;;;13.48;87.72;99909.78;5071083;28;20529;-76
2021/05/12 09:43:30;;;;;;;3.17;2.87;;;;;;;13.41;85.83;99909.53;5072254;28;20188;-77
2021/05/12 09:46:19;;;;;;;1.87;1.77;;;;;;;13.44;85.41;99914.34;5070967;28;20590;-77
2021/05/12 09:48:49;;;;;;;3.90;3.30;;;;;;;13.46;85.72;99912.06;5072000;28;20211;-76
2021/05/12 09:51:19;;;;;;;2.57;2.37;;;;;;;13.53;85.31;99906.78;5072145;28;20171;-76
2021/05/12 09:54:05;;;;;;;2.03;1.93;;;;;;;13.57;84.45;99918.69;5072016;28;20171;-76
2021/05/12 09:56:40;;;;;;;2.83;2.63;;;;;;;13.60;84.83;99912.53;5072253;28;20185;-75
2021/05/12 09:59:12;;;;;;;2.87;2.60;;;;;;;13.66;85.55;99910.34;5070889;28;20541;-74
2021/05/12 10:01:46;;;;;;;2.97;2.77;;;;;;;13.62;84.72;99914.94;5073705;28;20611;-74
2021/05/12 10:04:36;;;;;;;3.70;3.40;;;;;;;13.59;83.49;99919.13;5066189;28;20197;-73
2021/05/12 10:07:17;;;;;;;3.30;1.97;;;;;;;13.47;82.22;99918.38;5062716;28;20309;-75
2021/05/12 10:09:44;;;;;;;2.53;2.33;;;;;;;13.52;83.16;99920.88;5070008;28;20677;-80
2021/05/12 10:12:12;;;;;;;2.83;2.53;;;;;;;13.63;83.88;99913.78;5071392;28;20183;-74
2021/05/12 10:14:41;;;;;;;3.13;2.93;;;;;;;13.58;83.04;99919.47;5061688;28;20680;-74
2021/05/12 10:17:09;;;;;;;3.57;3.17;;;;;;;13.66;83.16;99911.13;5062466;28;20487;-74
2021/05/12 10:19:35;;;;;;;3.83;3.53;;;;;;;13.77;82.39;99918.91;5071942;28;20189;-75
2021/05/12 10:22:02;;;;;;;2.20;2.10;;;;;;;13.83;81.94;99907.34;5071698;28;20206;-75
2021/05/12 10:24:38;;;;;;;3.30;3.00;;;;;;;13.98;82.29;99912.09;5072310;28;20625;-77
2021/05/12 10:27:13;;;;;;;3.10;2.90;;;;;;;14.25;82.90;99907.00;5072122;28;20615;-75
2021/05/12 10:29:42;;;;;;;3.77;3.47;;;;;;;14.36;80.04;99915.53;5071845;28;20530;-77
2021/05/12 10:32:33;;;;;;;2.57;2.40;;;;;;;14.45;80.81;99907.97;5071018;28;20278;-73
2021/05/12 10:35:05;;;;;;;2.47;2.23;;;;;;;14.35;75.80;99912.00;5071486;28;20175;-75
2021/05/12 10:37:33;;;;;;;2.63;2.47;;;;;;;14.45;78.85;99922.50;5072183;28;20174;-74
2021/05/12 10:40:02;;;;;;;3.10;2.90;;;;;;;14.39;77.85;99915.63;5067404;28;20250;-77
2021/05/12 10:42:51;;;;;;;3.00;2.80;;;;;;;14.48;78.41;99921.03;5071683;28;20258;-75
2021/05/12 10:45:30;;;;;;;1.40;1.30;;;;;;;14.50;76.76;99915.97;5070422;28;20191;-73
2021/05/12 10:47:55;;;;;;;2.53;2.33;;;;;;;14.47;76.63;99914.72;5054146;28;20278;-74
2021/05/12 10:50:21;;;;;;;2.57;2.37;;;;;;;14.46;77.12;99920.56;5051784;28;20310;-75
2021/05/12 10:53:24;;;;;;;2.40;2.20;;;;;;;14.56;76.18;99906.31;5051443;28;20224;-74
2021/05/12 10:55:55;;;;;;;2.83;2.63;;;;;;;14.79;78.09;99912.84;5051393;28;20745;-74
2021/05/12 10:58:21;;;;;;;3.23;2.93;;;;;;;14.93;78.17;99917.94;5050937;28;20206;-74
2021/05/12 11:01:06;;;;;;;2.60;2.40;;;;;;;14.78;76.58;99908.50;5052314;28;20171;-75
2021/05/12 11:03:56;;;;;;;3.83;3.53;;;;;;;14.80;78.25;99914.44;5054493;28;20186;-75
2021/05/12 11:06:39;;;;;;;3.47;3.17;;;;;;;14.76;76.97;99915.50;5069740;28;20182;-72
2021/05/12 11:09:06;;;;;;;3.23;3.03;;;;;;;14.87;78.09;99922.06;5050909;28;20171;-74
2021/05/12 11:11:57;;;;;;;3.03;2.83;;;;;;;15.11;77.34;99926.63;5055621;28;20273;-75
2021/05/12 11:14:36;;;;;;;3.10;2.83;;;;;;;15.23;77.70;99920.25;5064692;28;20622;-75
2021/05/12 11:17:12;;;;;;;4.63;4.23;;;;;;;15.29;74.67;99919.59;5070836;28;20188;-74
2021/05/12 11:22:36;;;;;;;2.87;2.67;;;;;;;15.03;73.43;99914.63;5065732;28;20669;-75
2021/05/12 11:25:09;;;;;;;3.30;3.00;;;;;;;15.16;75.55;99916.16;5064501;28;20181;-73
2021/05/12 11:27:54;;;;;;;3.00;2.70;;;;;;;15.17;76.25;99911.44;5068664;28;20214;-73
2021/05/12 11:33:04;;;;;;;4.27;3.43;;;;;;;15.05;73.67;99914.31;5050886;28;20177;-74
2021/05/12 11:35:30;;;;;;;2.93;2.73;;;;;;;15.15;73.86;99913.75;5051268;28;20254;-73
2021/05/12 11:37:56;;;;;;;2.47;2.27;;;;;;;15.25;74.70;99910.47;5050677;28;20183;-73
2021/05/12 11:40:22;;;;;;;3.23;2.80;;;;;;;15.14;72.92;99914.91;5050535;28;20179;-73
2021/05/12 11:42:48;;;;;;;3.63;3.33;;;;;;;15.07;76.21;99912.00;5050338;28;20262;-72
2021/05/12 11:45:21;;;;;;;4.63;4.33;;;;;;;15.16;75.53;99913.41;5050751;28;20175;-73
2021/05/12 11:48:02;;;;;;;3.73;3.13;;;;;;;15.20;74.81;99910.75;5050547;28;20203;-73
2021/05/12 11:50:30;;;;;;;4.03;3.73;;;;;;;15.33;74.07;99909.47;5050433;28;20742;-72
2021/05/12 11:52:55;;;;;;;3.97;3.67;;;;;;;15.45;74.92;99909.38;5050570;28;20258;-71
2021/05/12 11:55:25;;;;;;;3.80;3.50;;;;;;;15.70;73.88;99918.25;5050409;28;20193;-71